Terminal Aerodrome Forecast
Issued by NWS

Home | Current Version | Previous Version | Text Only | Print | Product List | Glossary On
Versions: 1 2 3 4 5 6 7 8 9 10 11 12 13 14
000
FTUS42 KMLB 252300 RRA
TAFLEE
TAF
KLEE 252342Z 2600/2624 22006KT P6SM SCT200
     FM260200 VRB02KT P6SM FEW060 SCT250
     FM261400 21005KT P6SM SCT035 SCT250
     FM261700 25005KT P6SM VCTS SCT035CB SCT080=

USA.gov is the U.S. government's official web portal to all federal, state and local government web resources and services.